GTI612 GABS-DRRN
Flight info
| Callsign | GTI612 |
|---|---|
| Flight time | 1h 27m |
| Altitude | 31000 |
| Route | BKO UG860 OG UG854 BULSA/N0432F230 G854 BANGA ETROT1R |
| Aircraft | B77L/H-SDE1E2E3FGHIJ2J3J4J5M1RWXY/LB1D1 |
Departure
| Time | 2026-04-22 18:26 |
|---|---|
| Airport | Modibo Keita International Airport (GABS) |
Arrival
| Time | 2026-04-22 19:54 |
|---|---|
| Airport | Diori Hamani International Airport (DRRN) |
| Time | Latitude | Longitude | Altitude | Speed | Heading |
|---|---|---|---|---|---|
| 2026-04-22 17:46 | 12.54141 | -7.94429 | 1262 ft | 0 kts | 326° |
| 2026-04-22 18:17 | 12.54130 | -7.94421 | 1248 ft | 3 kts | 326° |
| 2026-04-22 18:17 | 12.54112 | -7.94409 | 1262 ft | 4 kts | 330° |
| 2026-04-22 18:18 | 12.54087 | -7.94397 | 1262 ft | 4 kts | 340° |
| 2026-04-22 18:18 | 12.54061 | -7.94390 | 1261 ft | 4 kts | 352° |
| 2026-04-22 18:18 | 12.54046 | -7.94388 | 1261 ft | 1 kts | 358° |
| 2026-04-22 18:21 | 12.54047 | -7.94388 | 1261 ft | 1 kts | 358° |
| 2026-04-22 18:21 | 12.54077 | -7.94369 | 1262 ft | 11 kts | 46° |
| 2026-04-22 18:21 | 12.54118 | -7.94305 | 1258 ft | 11 kts | 62° |
| 2026-04-22 18:21 | 12.54157 | -7.94238 | 1257 ft | 11 kts | 57° |
| 2026-04-22 18:22 | 12.54202 | -7.94175 | 1265 ft | 11 kts | 55° |
| 2026-04-22 18:22 | 12.54243 | -7.94110 | 1263 ft | 11 kts | 57° |
| 2026-04-22 18:22 | 12.54284 | -7.94045 | 1265 ft | 11 kts | 57° |
| 2026-04-22 18:22 | 12.54325 | -7.93980 | 1267 ft | 10 kts | 58° |
| 2026-04-22 18:23 | 12.54324 | -7.93922 | 1269 ft | 9 kts | 127° |
| 2026-04-22 18:23 | 12.54277 | -7.93885 | 1268 ft | 9 kts | 146° |
| 2026-04-22 18:23 | 12.54226 | -7.93852 | 1268 ft | 9 kts | 147° |
| 2026-04-22 18:24 | 12.54159 | -7.93762 | 1267 ft | 9 kts | 74° |
| 2026-04-22 18:24 | 12.54191 | -7.93706 | 1267 ft | 9 kts | 57° |
| 2026-04-22 18:24 | 12.54274 | -7.93631 | 1272 ft | 6 kts | 20° |
| 2026-04-22 18:25 | 12.54277 | -7.93601 | 1269 ft | 4 kts | 151° |
| 2026-04-22 18:25 | 12.54249 | -7.93618 | 1271 ft | 4 kts | 227° |
| 2026-04-22 18:25 | 12.54234 | -7.93640 | 1267 ft | 4 kts | 236° |
| 2026-04-22 18:26 | 12.53912 | -7.94135 | 1264 ft | 101 kts | 236° |
| 2026-04-22 18:26 | 12.53409 | -7.94907 | 1249 ft | 157 kts | 236° |
| 2026-04-22 18:26 | 12.52737 | -7.95954 | 1411 ft | 182 kts | 237° |
| 2026-04-22 18:26 | 12.52045 | -7.97034 | 1931 ft | 183 kts | 235° |
| 2026-04-22 18:27 | 12.51326 | -7.98151 | 2326 ft | 193 kts | 234° |
| 2026-04-22 18:27 | 12.50591 | -7.99302 | 2717 ft | 199 kts | 235° |
| 2026-04-22 18:27 | 12.49838 | -8.00565 | 3095 ft | 218 kts | 238° |
| 2026-04-22 18:27 | 12.48997 | -8.01896 | 3472 ft | 226 kts | 224° |
| 2026-04-22 18:28 | 12.47655 | -8.02782 | 3679 ft | 240 kts | 193° |
| 2026-04-22 18:28 | 12.45943 | -8.02821 | 3896 ft | 258 kts | 163° |
| 2026-04-22 18:28 | 12.44359 | -8.01926 | 4384 ft | 267 kts | 135° |
| 2026-04-22 18:28 | 12.43363 | -8.00348 | 4998 ft | 272 kts | 108° |
| 2026-04-22 18:29 | 12.43084 | -7.98436 | 5710 ft | 275 kts | 92° |
| 2026-04-22 18:29 | 12.43071 | -7.96454 | 6386 ft | 279 kts | 89° |
| 2026-04-22 18:29 | 12.43104 | -7.94460 | 7093 ft | 281 kts | 88° |
| 2026-04-22 18:29 | 12.43150 | -7.92443 | 7763 ft | 286 kts | 88° |
| 2026-04-22 18:30 | 12.43198 | -7.90399 | 8415 ft | 290 kts | 87° |
| 2026-04-22 18:30 | 12.43286 | -7.86221 | 9790 ft | 297 kts | 87° |
| 2026-04-22 18:30 | 12.43326 | -7.84079 | 10301 ft | 308 kts | 87° |
| 2026-04-22 18:31 | 12.43368 | -7.81801 | 10468 ft | 332 kts | 87° |
| 2026-04-22 18:31 | 12.43409 | -7.79357 | 10648 ft | 355 kts | 88° |
| 2026-04-22 18:31 | 12.43449 | -7.76782 | 10880 ft | 375 kts | 88° |
| 2026-04-22 18:31 | 12.43488 | -7.74070 | 11415 ft | 386 kts | 88° |
| 2026-04-22 18:32 | 12.43526 | -7.71302 | 12138 ft | 392 kts | 88° |
| 2026-04-22 18:32 | 12.43562 | -7.68504 | 13016 ft | 394 kts | 88° |
| 2026-04-22 18:32 | 12.43598 | -7.65692 | 13849 ft | 396 kts | 88° |
| 2026-04-22 18:32 | 12.43634 | -7.62849 | 14528 ft | 402 kts | 88° |
| 2026-04-22 18:33 | 12.43671 | -7.59970 | 15135 ft | 408 kts | 88° |
| 2026-04-22 18:33 | 12.43708 | -7.57041 | 15765 ft | 414 kts | 88° |
| 2026-04-22 18:33 | 12.43746 | -7.54078 | 16412 ft | 419 kts | 89° |
| 2026-04-22 18:33 | 12.43784 | -7.51081 | 17092 ft | 423 kts | 89° |
| 2026-04-22 18:34 | 12.43821 | -7.48056 | 17763 ft | 426 kts | 89° |
| 2026-04-22 18:34 | 12.43858 | -7.45048 | 18471 ft | 427 kts | 89° |
| 2026-04-22 18:34 | 12.43895 | -7.41997 | 19115 ft | 429 kts | 88° |
| 2026-04-22 18:34 | 12.43933 | -7.38922 | 19662 ft | 433 kts | 88° |
| 2026-04-22 18:35 | 12.43971 | -7.35827 | 20240 ft | 437 kts | 88° |
| 2026-04-22 18:35 | 12.44008 | -7.32700 | 20787 ft | 441 kts | 88° |
| 2026-04-22 18:35 | 12.44046 | -7.29556 | 21360 ft | 444 kts | 88° |
| 2026-04-22 18:35 | 12.44083 | -7.26388 | 21914 ft | 447 kts | 88° |
| 2026-04-22 18:36 | 12.44119 | -7.23234 | 22434 ft | 451 kts | 88° |
| 2026-04-22 18:36 | 12.44157 | -7.20013 | 22956 ft | 454 kts | 88° |
| 2026-04-22 18:36 | 12.44194 | -7.16760 | 23466 ft | 457 kts | 88° |
| 2026-04-22 18:36 | 12.44231 | -7.13488 | 23882 ft | 461 kts | 88° |
| 2026-04-22 18:37 | 12.44267 | -7.10202 | 24297 ft | 464 kts | 88° |
| 2026-04-22 18:37 | 12.44304 | -7.06879 | 24712 ft | 467 kts | 88° |
| 2026-04-22 18:37 | 12.44328 | -7.04680 | 24985 ft | 469 kts | 88° |
| 2026-04-22 18:37 | 12.44376 | -7.00247 | 25523 ft | 473 kts | 87° |
| 2026-04-22 18:38 | 12.44412 | -6.96862 | 25927 ft | 476 kts | 87° |
| 2026-04-22 18:38 | 12.44448 | -6.93468 | 26326 ft | 479 kts | 87° |
| 2026-04-22 18:38 | 12.44484 | -6.90049 | 26718 ft | 482 kts | 87° |
| 2026-04-22 18:39 | 12.44554 | -6.83144 | 27502 ft | 488 kts | 87° |
| 2026-04-22 18:39 | 12.44590 | -6.79646 | 27785 ft | 494 kts | 87° |
| 2026-04-22 18:39 | 12.44625 | -6.76112 | 28114 ft | 498 kts | 87° |
| 2026-04-22 18:39 | 12.44660 | -6.72557 | 28503 ft | 501 kts | 87° |
| 2026-04-22 18:40 | 12.44694 | -6.68984 | 28896 ft | 503 kts | 86° |
| 2026-04-22 18:40 | 12.44728 | -6.65389 | 29259 ft | 506 kts | 86° |
| 2026-04-22 18:40 | 12.44762 | -6.61786 | 29595 ft | 509 kts | 86° |
| 2026-04-22 18:40 | 12.44795 | -6.58190 | 29920 ft | 511 kts | 86° |
| 2026-04-22 18:41 | 12.44827 | -6.54549 | 30263 ft | 512 kts | 86° |
| 2026-04-22 18:41 | 12.44859 | -6.50909 | 30689 ft | 510 kts | 87° |
| 2026-04-22 18:41 | 12.44890 | -6.47271 | 31129 ft | 509 kts | 87° |
| 2026-04-22 18:41 | 12.44921 | -6.43686 | 31553 ft | 508 kts | 88° |
| 2026-04-22 18:42 | 12.44951 | -6.40075 | 31984 ft | 507 kts | 88° |
| 2026-04-22 18:42 | 12.44982 | -6.36463 | 32392 ft | 507 kts | 88° |
| 2026-04-22 18:42 | 12.45012 | -6.32854 | 32778 ft | 507 kts | 88° |
| 2026-04-22 18:42 | 12.45042 | -6.29252 | 33176 ft | 506 kts | 88° |
| 2026-04-22 18:43 | 12.45071 | -6.25651 | 33565 ft | 506 kts | 88° |
| 2026-04-22 18:43 | 12.45099 | -6.22052 | 33946 ft | 506 kts | 89° |
| 2026-04-22 18:43 | 12.45127 | -6.18453 | 34297 ft | 505 kts | 89° |
| 2026-04-22 18:43 | 12.45155 | -6.14870 | 34701 ft | 502 kts | 89° |
| 2026-04-22 18:44 | 12.45181 | -6.11286 | 34867 ft | 505 kts | 89° |
| 2026-04-22 18:44 | 12.45208 | -6.07728 | 34848 ft | 506 kts | 89° |
| 2026-04-22 18:44 | 12.45259 | -6.00546 | 34839 ft | 502 kts | 89° |
| 2026-04-22 18:45 | 12.45308 | -5.93426 | 34838 ft | 499 kts | 89° |
| 2026-04-22 18:45 | 12.45355 | -5.86333 | 34843 ft | 498 kts | 89° |
| 2026-04-22 18:46 | 12.45401 | -5.79229 | 34840 ft | 499 kts | 89° |
| 2026-04-22 18:46 | 12.45444 | -5.72118 | 34843 ft | 500 kts | 89° |
| 2026-04-22 18:47 | 12.45486 | -5.64989 | 34841 ft | 502 kts | 89° |
| 2026-04-22 18:47 | 12.45526 | -5.57884 | 34838 ft | 503 kts | 89° |
| 2026-04-22 18:48 | 12.45565 | -5.50705 | 34836 ft | 505 kts | 89° |
| 2026-04-22 18:48 | 12.45601 | -5.43500 | 34828 ft | 506 kts | 89° |
| 2026-04-22 18:49 | 12.45636 | -5.36279 | 34821 ft | 507 kts | 89° |
| 2026-04-22 18:49 | 12.45668 | -5.29111 | 34818 ft | 507 kts | 89° |
| 2026-04-22 18:50 | 12.45700 | -5.21890 | 34826 ft | 507 kts | 89° |
| 2026-04-22 18:50 | 12.45729 | -5.14707 | 34815 ft | 507 kts | 89° |
| 2026-04-22 18:51 | 12.45756 | -5.07490 | 34814 ft | 506 kts | 89° |
| 2026-04-22 18:51 | 12.45781 | -5.00283 | 34812 ft | 506 kts | 89° |
| 2026-04-22 18:52 | 12.45804 | -4.93070 | 34811 ft | 506 kts | 89° |
| 2026-04-22 18:52 | 12.45825 | -4.85910 | 34810 ft | 505 kts | 89° |
| 2026-04-22 18:53 | 12.45845 | -4.78701 | 34816 ft | 505 kts | 89° |
| 2026-04-22 18:53 | 12.45860 | -4.72726 | 34810 ft | 505 kts | 89° |
| 2026-04-22 18:54 | 12.45876 | -4.65543 | 34819 ft | 504 kts | 89° |
| 2026-04-22 18:54 | 12.45890 | -4.58362 | 34816 ft | 504 kts | 89° |
| 2026-04-22 18:55 | 12.45894 | -4.51179 | 34816 ft | 504 kts | 90° |
| 2026-04-22 18:55 | 12.45703 | -4.44045 | 34820 ft | 505 kts | 91° |
| 2026-04-22 18:56 | 12.45421 | -4.36846 | 34814 ft | 505 kts | 91° |
| 2026-04-22 18:56 | 12.45158 | -4.29648 | 34815 ft | 506 kts | 91° |
| 2026-04-22 18:57 | 12.44917 | -4.22444 | 34805 ft | 506 kts | 91° |
| 2026-04-22 18:57 | 12.44684 | -4.15292 | 34802 ft | 507 kts | 91° |
| 2026-04-22 18:58 | 12.44447 | -4.08088 | 34800 ft | 507 kts | 91° |
| 2026-04-22 18:58 | 12.44206 | -4.00881 | 34801 ft | 506 kts | 91° |
| 2026-04-22 18:59 | 12.43962 | -3.93675 | 34801 ft | 506 kts | 91° |
| 2026-04-22 18:59 | 12.43717 | -3.86461 | 34803 ft | 506 kts | 91° |
| 2026-04-22 19:00 | 12.43471 | -3.79301 | 34797 ft | 506 kts | 91° |
| 2026-04-22 19:00 | 12.43222 | -3.72093 | 34801 ft | 506 kts | 91° |
| 2026-04-22 19:01 | 12.42971 | -3.64889 | 34797 ft | 507 kts | 91° |
| 2026-04-22 19:01 | 12.42718 | -3.57675 | 34799 ft | 507 kts | 91° |
| 2026-04-22 19:02 | 12.42465 | -3.50516 | 34803 ft | 507 kts | 91° |
| 2026-04-22 19:02 | 12.42208 | -3.43310 | 34801 ft | 507 kts | 91° |
| 2026-04-22 19:03 | 12.41949 | -3.36089 | 34799 ft | 507 kts | 91° |
| 2026-04-22 19:03 | 12.41688 | -3.28870 | 34799 ft | 507 kts | 91° |
| 2026-04-22 19:04 | 12.41427 | -3.21693 | 34807 ft | 507 kts | 91° |
| 2026-04-22 19:04 | 12.41162 | -3.14474 | 34807 ft | 508 kts | 91° |
| 2026-04-22 19:05 | 12.40895 | -3.07250 | 34806 ft | 508 kts | 91° |
| 2026-04-22 19:05 | 12.40627 | -3.00053 | 34800 ft | 508 kts | 91° |
| 2026-04-22 19:06 | 12.40357 | -2.92818 | 34809 ft | 509 kts | 91° |
| 2026-04-22 19:07 | 12.39946 | -2.81954 | 34804 ft | 509 kts | 91° |
| 2026-04-22 19:07 | 12.39669 | -2.74707 | 34806 ft | 510 kts | 91° |
| 2026-04-22 19:08 | 12.39388 | -2.67501 | 34805 ft | 510 kts | 91° |
| 2026-04-22 19:08 | 12.39102 | -2.60246 | 34804 ft | 509 kts | 91° |
| 2026-04-22 19:09 | 12.38815 | -2.53003 | 34804 ft | 508 kts | 91° |
| 2026-04-22 19:09 | 12.38530 | -2.45830 | 34805 ft | 507 kts | 91° |
| 2026-04-22 19:10 | 12.38242 | -2.38607 | 34812 ft | 507 kts | 91° |
| 2026-04-22 19:10 | 12.37951 | -2.31396 | 34810 ft | 506 kts | 91° |
| 2026-04-22 19:11 | 12.37662 | -2.24244 | 34807 ft | 506 kts | 91° |
| 2026-04-22 19:11 | 12.37368 | -2.17054 | 34814 ft | 506 kts | 91° |
| 2026-04-22 19:12 | 12.37073 | -2.09849 | 34813 ft | 507 kts | 91° |
| 2026-04-22 19:12 | 12.36775 | -2.02633 | 34815 ft | 508 kts | 91° |
| 2026-04-22 19:13 | 12.36475 | -1.95416 | 34818 ft | 508 kts | 91° |
| 2026-04-22 19:13 | 12.36174 | -1.88234 | 34815 ft | 508 kts | 91° |
| 2026-04-22 19:14 | 12.35870 | -1.81013 | 34822 ft | 508 kts | 91° |
| 2026-04-22 19:14 | 12.35564 | -1.73779 | 34823 ft | 507 kts | 91° |
| 2026-04-22 19:15 | 12.35308 | -1.67779 | 34827 ft | 507 kts | 91° |
| 2026-04-22 19:15 | 12.34950 | -1.59404 | 34830 ft | 506 kts | 91° |
| 2026-04-22 19:16 | 12.35047 | -1.52214 | 34823 ft | 505 kts | 82° |
| 2026-04-22 19:16 | 12.36404 | -1.45199 | 34828 ft | 502 kts | 71° |
| 2026-04-22 19:17 | 12.38559 | -1.38407 | 34830 ft | 502 kts | 70° |
| 2026-04-22 19:17 | 12.40740 | -1.31649 | 34828 ft | 503 kts | 70° |
| 2026-04-22 19:18 | 12.42901 | -1.24826 | 34823 ft | 505 kts | 70° |
| 2026-04-22 19:18 | 12.45045 | -1.17968 | 34824 ft | 507 kts | 71° |
| 2026-04-22 19:19 | 12.47191 | -1.11086 | 34823 ft | 508 kts | 71° |
| 2026-04-22 19:19 | 12.49347 | -1.04174 | 34826 ft | 509 kts | 71° |
| 2026-04-22 19:20 | 12.51489 | -0.97302 | 34823 ft | 510 kts | 71° |
| 2026-04-22 19:20 | 12.53645 | -0.90378 | 34825 ft | 510 kts | 71° |
| 2026-04-22 19:21 | 12.55796 | -0.83464 | 34826 ft | 510 kts | 71° |
| 2026-04-22 19:21 | 12.57935 | -0.76584 | 34823 ft | 509 kts | 71° |
| 2026-04-22 19:22 | 12.60080 | -0.69674 | 34824 ft | 508 kts | 71° |
| 2026-04-22 19:22 | 12.62220 | -0.62774 | 34828 ft | 508 kts | 71° |
| 2026-04-22 19:23 | 12.64356 | -0.55883 | 34827 ft | 508 kts | 71° |
| 2026-04-22 19:23 | 12.66491 | -0.48990 | 34829 ft | 507 kts | 71° |
| 2026-04-22 19:24 | 12.68628 | -0.42095 | 34823 ft | 508 kts | 71° |
| 2026-04-22 19:24 | 12.70755 | -0.35227 | 34822 ft | 508 kts | 71° |
| 2026-04-22 19:25 | 12.72891 | -0.28319 | 34822 ft | 508 kts | 71° |
| 2026-04-22 19:25 | 12.75020 | -0.21422 | 34825 ft | 508 kts | 71° |
| 2026-04-22 19:26 | 12.77153 | -0.14508 | 34833 ft | 508 kts | 71° |
| 2026-04-22 19:26 | 12.79268 | -0.07645 | 34805 ft | 495 kts | 71° |
| 2026-04-22 19:26 | 12.80287 | -0.04330 | 34802 ft | 480 kts | 71° |
| 2026-04-22 19:27 | 12.81262 | -0.01156 | 34807 ft | 465 kts | 71° |
| 2026-04-22 19:27 | 12.83189 | 0.05106 | 34565 ft | 458 kts | 71° |
| 2026-04-22 19:27 | 12.84145 | 0.08213 | 34162 ft | 455 kts | 70° |
| 2026-04-22 19:28 | 12.85096 | 0.11306 | 33700 ft | 454 kts | 70° |
| 2026-04-22 19:28 | 12.86045 | 0.14395 | 33225 ft | 451 kts | 70° |
| 2026-04-22 19:28 | 12.86983 | 0.17449 | 32854 ft | 447 kts | 69° |
| 2026-04-22 19:28 | 12.87910 | 0.20474 | 32513 ft | 441 kts | 69° |
| 2026-04-22 19:29 | 12.88813 | 0.23421 | 32172 ft | 437 kts | 69° |
| 2026-04-22 19:29 | 12.89719 | 0.26379 | 31793 ft | 433 kts | 68° |
| 2026-04-22 19:29 | 12.90618 | 0.29312 | 31425 ft | 429 kts | 68° |
| 2026-04-22 19:29 | 12.91508 | 0.32219 | 31053 ft | 425 kts | 68° |
| 2026-04-22 19:30 | 12.92104 | 0.34167 | 30819 ft | 423 kts | 67° |
| 2026-04-22 19:30 | 12.93264 | 0.37958 | 30365 ft | 417 kts | 66° |
| 2026-04-22 19:30 | 12.94132 | 0.40797 | 30006 ft | 414 kts | 66° |
| 2026-04-22 19:30 | 12.94993 | 0.43611 | 29589 ft | 411 kts | 66° |
| 2026-04-22 19:31 | 12.95835 | 0.46361 | 29151 ft | 408 kts | 66° |
| 2026-04-22 19:31 | 12.96684 | 0.49136 | 28702 ft | 406 kts | 67° |
| 2026-04-22 19:31 | 12.97531 | 0.51903 | 28245 ft | 404 kts | 68° |
| 2026-04-22 19:31 | 12.98371 | 0.54654 | 27804 ft | 403 kts | 68° |
| 2026-04-22 19:32 | 12.99208 | 0.57393 | 27378 ft | 401 kts | 68° |
| 2026-04-22 19:32 | 13.00025 | 0.60073 | 26974 ft | 398 kts | 69° |
| 2026-04-22 19:32 | 13.00852 | 0.62784 | 26564 ft | 397 kts | 69° |
| 2026-04-22 19:32 | 13.01672 | 0.65475 | 26168 ft | 395 kts | 70° |
| 2026-04-22 19:33 | 13.02490 | 0.68157 | 25780 ft | 393 kts | 70° |
| 2026-04-22 19:33 | 13.03304 | 0.70830 | 25394 ft | 391 kts | 70° |
| 2026-04-22 19:33 | 13.04115 | 0.73496 | 25014 ft | 389 kts | 71° |
| 2026-04-22 19:33 | 13.04922 | 0.76146 | 24647 ft | 388 kts | 71° |
| 2026-04-22 19:34 | 13.05724 | 0.78785 | 24239 ft | 388 kts | 71° |
| 2026-04-22 19:34 | 13.06520 | 0.81400 | 23804 ft | 389 kts | 72° |
| 2026-04-22 19:34 | 13.07325 | 0.84050 | 23428 ft | 388 kts | 72° |
| 2026-04-22 19:34 | 13.08127 | 0.86690 | 23039 ft | 386 kts | 72° |
| 2026-04-22 19:35 | 13.08920 | 0.89302 | 22694 ft | 381 kts | 72° |
| 2026-04-22 19:35 | 13.09705 | 0.91891 | 22364 ft | 377 kts | 72° |
| 2026-04-22 19:35 | 13.10219 | 0.93588 | 22122 ft | 375 kts | 72° |
| 2026-04-22 19:35 | 13.11249 | 0.96988 | 21633 ft | 371 kts | 72° |
| 2026-04-22 19:36 | 13.12012 | 0.99508 | 21273 ft | 368 kts | 72° |
| 2026-04-22 19:36 | 13.12767 | 1.02004 | 20923 ft | 365 kts | 72° |
| 2026-04-22 19:36 | 13.13519 | 1.04490 | 20575 ft | 363 kts | 72° |
| 2026-04-22 19:36 | 13.14268 | 1.06967 | 20170 ft | 364 kts | 72° |
| 2026-04-22 19:37 | 13.15006 | 1.09409 | 19850 ft | 361 kts | 72° |
| 2026-04-22 19:37 | 13.15746 | 1.11861 | 19578 ft | 358 kts | 72° |
| 2026-04-22 19:37 | 13.16481 | 1.14294 | 19284 ft | 354 kts | 72° |
| 2026-04-22 19:37 | 13.17208 | 1.16700 | 18991 ft | 352 kts | 72° |
| 2026-04-22 19:38 | 13.17928 | 1.19086 | 18678 ft | 347 kts | 72° |
| 2026-04-22 19:38 | 13.18635 | 1.21433 | 18199 ft | 341 kts | 72° |
| 2026-04-22 19:38 | 13.19337 | 1.23759 | 17544 ft | 340 kts | 72° |
| 2026-04-22 19:38 | 13.20023 | 1.26036 | 16947 ft | 336 kts | 72° |
| 2026-04-22 19:39 | 13.20712 | 1.28320 | 16391 ft | 332 kts | 72° |
| 2026-04-22 19:39 | 13.21389 | 1.30567 | 15859 ft | 326 kts | 72° |
| 2026-04-22 19:39 | 13.22056 | 1.32781 | 15333 ft | 321 kts | 73° |
| 2026-04-22 19:39 | 13.22710 | 1.34952 | 14823 ft | 316 kts | 73° |
| 2026-04-22 19:40 | 13.23347 | 1.37067 | 14313 ft | 311 kts | 73° |
| 2026-04-22 19:40 | 13.23982 | 1.39179 | 13779 ft | 307 kts | 73° |
| 2026-04-22 19:40 | 13.24610 | 1.41271 | 13209 ft | 307 kts | 73° |
| 2026-04-22 19:40 | 13.25240 | 1.43366 | 12809 ft | 305 kts | 73° |
| 2026-04-22 19:41 | 13.25862 | 1.45436 | 12468 ft | 302 kts | 73° |
| 2026-04-22 19:41 | 13.26272 | 1.46798 | 12247 ft | 299 kts | 73° |
| 2026-04-22 19:41 | 13.26882 | 1.48831 | 11919 ft | 296 kts | 73° |
| 2026-04-22 19:41 | 13.27681 | 1.51492 | 11496 ft | 291 kts | 73° |
| 2026-04-22 19:42 | 13.28274 | 1.53468 | 11180 ft | 288 kts | 73° |
| 2026-04-22 19:42 | 13.28669 | 1.54785 | 10998 ft | 284 kts | 73° |
| 2026-04-22 19:42 | 13.29242 | 1.56696 | 10805 ft | 276 kts | 73° |
| 2026-04-22 19:42 | 13.29802 | 1.58563 | 10538 ft | 271 kts | 73° |
| 2026-04-22 19:43 | 13.30880 | 1.62159 | 10150 ft | 258 kts | 73° |
| 2026-04-22 19:43 | 13.31407 | 1.63917 | 10002 ft | 256 kts | 73° |
| 2026-04-22 19:43 | 13.31928 | 1.65658 | 9753 ft | 253 kts | 72° |
| 2026-04-22 19:44 | 13.32441 | 1.67370 | 9402 ft | 250 kts | 72° |
| 2026-04-22 19:44 | 13.32952 | 1.69075 | 8995 ft | 249 kts | 72° |
| 2026-04-22 19:44 | 13.33460 | 1.70772 | 8609 ft | 248 kts | 72° |
| 2026-04-22 19:44 | 13.33967 | 1.72465 | 8237 ft | 247 kts | 72° |
| 2026-04-22 19:45 | 13.34469 | 1.74143 | 8020 ft | 246 kts | 72° |
| 2026-04-22 19:45 | 13.34975 | 1.75840 | 8016 ft | 249 kts | 72° |
| 2026-04-22 19:45 | 13.35592 | 1.77490 | 7957 ft | 247 kts | 64° |
| 2026-04-22 19:45 | 13.36377 | 1.79024 | 7765 ft | 244 kts | 62° |
| 2026-04-22 19:46 | 13.37192 | 1.80544 | 7439 ft | 242 kts | 61° |
| 2026-04-22 19:46 | 13.38005 | 1.82062 | 7045 ft | 241 kts | 62° |
| 2026-04-22 19:46 | 13.38808 | 1.83578 | 6684 ft | 240 kts | 62° |
| 2026-04-22 19:46 | 13.39600 | 1.85085 | 6333 ft | 239 kts | 62° |
| 2026-04-22 19:47 | 13.40382 | 1.86582 | 6018 ft | 236 kts | 62° |
| 2026-04-22 19:47 | 13.41147 | 1.88054 | 5741 ft | 236 kts | 62° |
| 2026-04-22 19:47 | 13.41919 | 1.89545 | 5473 ft | 237 kts | 62° |
| 2026-04-22 19:47 | 13.42694 | 1.91045 | 5202 ft | 238 kts | 62° |
| 2026-04-22 19:48 | 13.43463 | 1.92535 | 4929 ft | 233 kts | 62° |
| 2026-04-22 19:48 | 13.44211 | 1.93984 | 4667 ft | 226 kts | 62° |
| 2026-04-22 19:48 | 13.44934 | 1.95386 | 4441 ft | 216 kts | 62° |
| 2026-04-22 19:48 | 13.45619 | 1.96716 | 4270 ft | 206 kts | 62° |
| 2026-04-22 19:49 | 13.46281 | 1.98002 | 3986 ft | 200 kts | 62° |
| 2026-04-22 19:49 | 13.46915 | 1.99240 | 3737 ft | 191 kts | 64° |
| 2026-04-22 19:49 | 13.47242 | 2.00496 | 3501 ft | 180 kts | 80° |
| 2026-04-22 19:49 | 13.47403 | 2.01756 | 3421 ft | 176 kts | 81° |
| 2026-04-22 19:50 | 13.47504 | 2.02979 | 3216 ft | 167 kts | 83° |
| 2026-04-22 19:50 | 13.47569 | 2.04158 | 3015 ft | 163 kts | 84° |
| 2026-04-22 19:50 | 13.47624 | 2.05318 | 2855 ft | 165 kts | 84° |
| 2026-04-22 19:50 | 13.47677 | 2.06482 | 2622 ft | 158 kts | 84° |
| 2026-04-22 19:51 | 13.47728 | 2.07562 | 2438 ft | 147 kts | 84° |
| 2026-04-22 19:51 | 13.47776 | 2.08590 | 2270 ft | 146 kts | 84° |
| 2026-04-22 19:51 | 13.47822 | 2.09634 | 2082 ft | 146 kts | 84° |
| 2026-04-22 19:51 | 13.47871 | 2.10675 | 1915 ft | 146 kts | 83° |
| 2026-04-22 19:52 | 13.47921 | 2.11719 | 1714 ft | 146 kts | 83° |
| 2026-04-22 19:52 | 13.47969 | 2.12766 | 1519 ft | 148 kts | 84° |
| 2026-04-22 19:52 | 13.48017 | 2.13842 | 1350 ft | 155 kts | 85° |
| 2026-04-22 19:52 | 13.48069 | 2.14963 | 1188 ft | 159 kts | 84° |
| 2026-04-22 19:53 | 13.48123 | 2.16092 | 934 ft | 160 kts | 85° |
| 2026-04-22 19:53 | 13.48173 | 2.17215 | 746 ft | 155 kts | 85° |
| 2026-04-22 19:53 | 13.48220 | 2.18206 | 734 ft | 115 kts | 87° |
| 2026-04-22 19:53 | 13.48249 | 2.18834 | 729 ft | 61 kts | 87° |
| 2026-04-22 19:54 | 13.48261 | 2.19124 | 725 ft | 32 kts | 87° |
| 2026-04-22 19:54 | 13.48272 | 2.19347 | 725 ft | 30 kts | 87° |
| 2026-04-22 19:54 | 13.48282 | 2.19561 | 723 ft | 29 kts | 87° |
| 2026-04-22 19:54 | 13.48255 | 2.19683 | 726 ft | 14 kts | 143° |
| 2026-04-22 19:55 | 13.48164 | 2.19706 | 722 ft | 14 kts | 178° |
| 2026-04-22 19:55 | 13.48099 | 2.19663 | 727 ft | 11 kts | 256° |
| 2026-04-22 19:55 | 13.48094 | 2.19581 | 727 ft | 11 kts | 267° |
| 2026-04-22 19:55 | 13.48090 | 2.19499 | 728 ft | 11 kts | 267° |
| 2026-04-22 19:56 | 13.48086 | 2.19417 | 728 ft | 11 kts | 267° |
| 2026-04-22 19:56 | 13.48082 | 2.19335 | 726 ft | 11 kts | 267° |
| 2026-04-22 19:56 | 13.48079 | 2.19253 | 726 ft | 11 kts | 267° |
| 2026-04-22 19:56 | 13.48075 | 2.19172 | 727 ft | 11 kts | 267° |
| 2026-04-22 19:57 | 13.48071 | 2.19089 | 731 ft | 11 kts | 266° |
| 2026-04-22 19:57 | 13.48067 | 2.19008 | 728 ft | 11 kts | 267° |
| 2026-04-22 19:57 | 13.48063 | 2.18926 | 728 ft | 11 kts | 267° |
| 2026-04-22 19:57 | 13.48059 | 2.18844 | 732 ft | 11 kts | 267° |
| 2026-04-22 19:58 | 13.48056 | 2.18762 | 732 ft | 11 kts | 268° |
| 2026-04-22 19:58 | 13.48052 | 2.18680 | 732 ft | 11 kts | 267° |
| 2026-04-22 19:58 | 13.48048 | 2.18598 | 731 ft | 11 kts | 267° |
| 2026-04-22 19:58 | 13.48029 | 2.18537 | 732 ft | 9 kts | 219° |
| 2026-04-22 19:59 | 13.47967 | 2.18526 | 731 ft | 9 kts | 182° |
| 2026-04-22 20:00 | 13.47850 | 2.18504 | 732 ft | 0 kts | 179° |
| 2026-04-22 20:00 | 13.47846 | 2.18503 | 732 ft | 1 kts | 180° |
| 2026-04-22 20:01 | 13.47841 | 2.18504 | 735 ft | 1 kts | 177° |
| 2026-04-22 20:01 | 13.47836 | 2.18504 | 735 ft | 0 kts | 177° |